Dades meteomassalio
Diari Summary for Setembre 30, 2017 Units:  Metric    English   Both
« Previous Day
Next Day »
Diari Semanal Mensual Anual Personalitzat
  Maxima: Minima: Mijana:
Temperatura: -17.8 °C -12.8 °C -9.5 °C
Rosada: -17.8 °C -13.7 °C -11.1 °C
Humitat: Humidity % 68 % 83 %
Velocitat del vent: 0 km/h 0 km/h 2.6 km/h
Racha vent: 0 km/h - -
Vent:- - West
Pressio: 0 hPa 34554.1 hPa -
Pluja: 0 mm    
Historical Graphs
 
 
Tabular Data for Setembre 30, 2017
Time Temperature Dew Point Pressure Wind Wind Speed Wind Gust Humidity Rainfall Rate (Hourly) solar Conditions
-17.8 °C -17.8 °C 0 hPa Calm     Humidity % 0 mm SolarRadiationWatts/m^2 W/m2 Conditions
00:02 -11 °C -12.9 °C 34625.2 hPa Calm     79 % 0 mm 0.0 W/m2 CLR
00:07 -11 °C -12.8 °C 34625.2 hPa Calm     80 % 0 mm 0.0 W/m2 CLR
00:12 -11 °C -12.8 °C 34625.2 hPa Calm     80 % 0 mm 0.0 W/m2 CLR
00:17 -11 °C -12.9 °C 34625.2 hPa Calm     79 % 0 mm 0.0 W/m2 CLR
00:22 -11 °C -12.8 °C 34625.2 hPa Calm     80 % 0 mm 0.0 W/m2 CLR
00:27 -11 °C -12.7 °C 34625.2 hPa Calm     81 % 0 mm 0.0 W/m2 CLR
00:32 -11 °C -12.7 °C 34625.2 hPa Calm     82 % 0 mm 0.0 W/m2 CLR
00:37 -11 °C -12.7 °C 34611.7 hPa Calm     82 % 0 mm 0.0 W/m2 CLR
00:45 -11 °C -12.7 °C 34611.7 hPa Calm     82 % 0 mm 0.0 W/m2 CLR
00:50 -11.3 °C -12.9 °C 34611.7 hPa Calm     82 % 0 mm 0.0 W/m2 CLR
00:55 -11.3 °C -12.9 °C 34625.2 hPa Calm     82 % 0 mm 0.0 W/m2 CLR
01:00 -11.3 °C -12.8 °C 34611.7 hPa Calm     83 % 0 mm 0.0 W/m2 CLR
01:05 -11.3 °C -13.1 °C 34611.7 hPa Calm     81 % 0 mm 0.0 W/m2 CLR
01:10 -11.3 °C -13.1 °C 34611.7 hPa Calm     81 % 0 mm 0.0 W/m2 CLR
01:15 -11.3 °C -12.9 °C 34611.7 hPa Calm     82 % 0 mm 0.0 W/m2 CLR
01:20 -11.3 °C -13.1 °C 34611.7 hPa Calm     81 % 0 mm 0.0 W/m2 CLR
01:25 -11.3 °C -12.9 °C 34611.7 hPa Calm     82 % 0 mm 0.0 W/m2 CLR
01:30 -11.6 °C -13.2 °C 34611.7 hPa Calm     83 % 0 mm 0.0 W/m2 CLR
01:35 -11.6 °C -13.1 °C 34611.7 hPa Calm     84 % 0 mm 0.0 W/m2 CLR
01:40 -11.6 °C -13.2 °C 34611.7 hPa Calm     83 % 0 mm 0.0 W/m2 CLR
01:45 -11.6 °C -13.2 °C 34611.7 hPa Calm     82 % 0 mm 0.0 W/m2 CLR
01:50 -11.6 °C -13.2 °C 34611.7 hPa Calm     83 % 0 mm 0.0 W/m2 CLR
01:55 -11.6 °C -13.1 °C 34611.7 hPa Calm     84 % 0 mm 0.0 W/m2 CLR
02:00 -11.6 °C -12.9 °C 34611.7 hPa Calm     85 % 0 mm 0.0 W/m2 CLR
02:05 -11.6 °C -12.9 °C 34611.7 hPa Calm     86 % 0 mm 0.0 W/m2 CLR
02:10 -11.6 °C -12.9 °C 34625.2 hPa Calm     86 % 0 mm 0.0 W/m2 CLR
02:15 -11.6 °C -12.9 °C 34625.2 hPa Calm     86 % 0 mm 0.0 W/m2 CLR
02:20 -11.6 °C -12.9 °C 34611.7 hPa Calm     86 % 0 mm 0.0 W/m2 CLR
02:25 -11.6 °C -12.9 °C 34611.7 hPa Calm     86 % 0 mm 0.0 W/m2 CLR
02:30 -11.6 °C -12.9 °C 34611.7 hPa Calm     86 % 0 mm 0.0 W/m2 CLR
02:35 -11.6 °C -12.9 °C 34611.7 hPa Calm     86 % 0 mm 0.0 W/m2 CLR
02:36 -11.6 °C -12.9 °C 34611.7 hPa Calm     86 % 0 mm 0.0 W/m2 CLR
02:41 -11.6 °C -12.7 °C 34611.7 hPa Calm     87 % 0 mm 0.0 W/m2 CLR
02:46 -11.9 °C -13.2 °C 34611.7 hPa Calm     86 % 0 mm 0.0 W/m2 CLR
02:51 -11.9 °C -13.2 °C 34611.7 hPa Calm     86 % 0 mm 0.0 W/m2 CLR
02:56 -11.9 °C -13.2 °C 34601.5 hPa Calm     86 % 0 mm 0.0 W/m2 CLR
03:01 -11.9 °C -13.2 °C 34611.7 hPa Calm     86 % 0 mm 0.0 W/m2 CLR
03:06 -11.9 °C -13.2 °C 34611.7 hPa Calm     86 % 0 mm 0.0 W/m2 CLR
03:11 -11.9 °C -13.2 °C 34611.7 hPa Calm     86 % 0 mm 0.0 W/m2 CLR
03:16 -11.9 °C -13.1 °C 34611.7 hPa Calm     87 % 0 mm 0.0 W/m2 CLR
03:21 -11.9 °C -13.1 °C 34611.7 hPa Calm     87 % 0 mm 0.0 W/m2 CLR
03:26 -11.9 °C -13.1 °C 34611.7 hPa Calm     87 % 0 mm 0.0 W/m2 CLR
03:31 -11.9 °C -13.1 °C 34611.7 hPa Calm     87 % 0 mm 0.0 W/m2 CLR
03:36 -11.9 °C -12.9 °C 34611.7 hPa Calm     88 % 0 mm 0.0 W/m2 CLR
03:41 -11.9 °C -12.9 °C 34601.5 hPa Calm     88 % 0 mm 0.0 W/m2 CLR
03:46 -11.9 °C -12.9 °C 34601.5 hPa Calm     88 % 0 mm 0.0 W/m2 CLR
03:51 -11.9 °C -12.9 °C 34601.5 hPa Calm     88 % 0 mm 0.0 W/m2 CLR
03:56 -11.9 °C -12.9 °C 34611.7 hPa Calm     88 % 0 mm 0.0 W/m2 CLR
04:01 -11.9 °C -12.9 °C 34601.5 hPa Calm     88 % 0 mm 0.0 W/m2 CLR
04:06 -11.9 °C -12.9 °C 34601.5 hPa Calm     89 % 0 mm 0.0 W/m2 CLR
04:11 -12.2 °C -13.2 °C 34601.5 hPa Calm     89 % 0 mm 0.0 W/m2 CLR
04:16 -12.2 °C -13.2 °C 34601.5 hPa Calm     89 % 0 mm 0.0 W/m2 CLR
04:21 -12.2 °C -13.2 °C 34601.5 hPa Calm     89 % 0 mm 0.0 W/m2 CLR
04:26 -11.9 °C -12.9 °C 34601.5 hPa Calm     89 % 0 mm 0.0 W/m2 CLR
04:31 -12.2 °C -13.2 °C 34601.5 hPa Calm     89 % 0 mm 0.0 W/m2 CLR
04:36 -12.2 °C -13.2 °C 34601.5 hPa Calm     89 % 0 mm 0.0 W/m2 CLR
04:41 -12.2 °C -13.2 °C 34601.5 hPa Calm     89 % 0 mm 0.0 W/m2 CLR
04:46 -12.2 °C -13.2 °C 34601.5 hPa Calm     89 % 0 mm 0.0 W/m2 CLR
04:51 -12.6 °C -13.4 °C 34601.5 hPa Calm     90 % 0 mm 0.0 W/m2 CLR
04:56 -12.6 °C -13.4 °C 34601.5 hPa Calm     90 % 0 mm 0.0 W/m2 CLR
05:01 -12.6 °C -13.5 °C 34601.5 hPa Calm     89 % 0 mm 0.0 W/m2 CLR
05:06 -12.6 °C -13.5 °C 34611.7 hPa Calm     89 % 0 mm 0.0 W/m2 CLR
05:11 -12.6 °C -13.5 °C 34601.5 hPa Calm     89 % 0 mm 0.0 W/m2 CLR
05:16 -12.6 °C -13.5 °C 34601.5 hPa Calm     89 % 0 mm 0.0 W/m2 CLR
05:21 -12.6 °C -13.5 °C 34611.7 hPa Calm     89 % 0 mm 0.0 W/m2 CLR
05:26 -12.6 °C -13.4 °C 34601.5 hPa Calm     90 % 0 mm 0.0 W/m2 CLR
05:31 -12.6 °C -13.4 °C 34601.5 hPa Calm     90 % 0 mm 0.0 W/m2 CLR
05:36 -12.6 °C -13.4 °C 34601.5 hPa Calm     90 % 0 mm 0.0 W/m2 CLR
05:41 -12.6 °C -13.4 °C 34611.7 hPa Calm     90 % 0 mm 0.0 W/m2 CLR
05:46 -12.6 °C -13.5 °C 34601.5 hPa Calm     89 % 0 mm 0.0 W/m2 CLR
05:51 -12.6 °C -13.4 °C 34601.5 hPa Calm     90 % 0 mm 0.0 W/m2 CLR
05:56 -12.8 °C -13.7 °C 34601.5 hPa Calm     90 % 0 mm 0.0 W/m2 CLR
06:01 -12.8 °C -13.7 °C 34601.5 hPa Calm     90 % 0 mm 0.0 W/m2 CLR
06:06 -12.8 °C -13.7 °C 34601.5 hPa Calm     90 % 0 mm 0.0 W/m2 CLR
06:11 -12.8 °C -13.7 °C 34601.5 hPa Calm     90 % 0 mm 0.0 W/m2 CLR
06:16 -12.8 °C -13.7 °C 34601.5 hPa Calm     90 % 0 mm 0.0 W/m2 CLR
06:21 -12.8 °C -13.7 °C 34601.5 hPa Calm     90 % 0 mm 0.0 W/m2 CLR
06:26 -12.8 °C -13.7 °C 34611.7 hPa Calm     90 % 0 mm 0.0 W/m2 CLR
06:31 -12.8 °C -13.7 °C 34611.7 hPa Calm     90 % 0 mm 0.0 W/m2 CLR
06:36 -12.6 °C -13.3 °C 34611.7 hPa Calm     91 % 0 mm 0.0 W/m2 CLR
06:41 -12.8 °C -13.7 °C 34611.7 hPa Calm     90 % 0 mm 0.0 W/m2 CLR
06:46 -12.8 °C -13.7 °C 34611.7 hPa Calm     90 % 0 mm 0.0 W/m2 CLR
06:51 -12.8 °C -13.7 °C 34611.7 hPa Calm     90 % 0 mm 0.0 W/m2 CLR
06:56 -12.8 °C -13.7 °C 34611.7 hPa Calm     90 % 0 mm 0.0 W/m2 CLR
07:01 -12.8 °C -13.7 °C 34611.7 hPa Calm     90 % 0 mm 0.0 W/m2 CLR
07:06 -12.8 °C -13.7 °C 34611.7 hPa Calm     90 % 0 mm 0.0 W/m2 CLR
07:11 -12.8 °C -13.7 °C 34611.7 hPa Calm     90 % 0 mm 0.0 W/m2 CLR
07:16 -12.6 °C -13.3 °C 34611.7 hPa Calm     91 % 0 mm 0.0 W/m2 CLR
07:21 -12.6 °C -13.4 °C 34611.7 hPa Calm     90 % 0 mm 0.0 W/m2 CLR
07:26 -12.8 °C -13.6 °C 34611.7 hPa Calm     91 % 0 mm 0.0 W/m2 CLR
07:31 -12.8 °C -13.6 °C 34611.7 hPa Calm     91 % 0 mm 0.0 W/m2 CLR
07:36 -12.8 °C -13.6 °C 34611.7 hPa Calm     91 % 0 mm 0.0 W/m2 CLR
07:41 -12.8 °C -13.7 °C 34611.7 hPa Calm     90 % 0 mm 0.0 W/m2 CLR
07:46 -12.8 °C -13.7 °C 34611.7 hPa Calm     90 % 0 mm 7.0 W/m2 OVC
07:52 -12.8 °C -13.6 °C 34611.7 hPa Calm     91 % 0 mm 7.0 W/m2 OVC
07:57 -12.8 °C -13.6 °C 34611.7 hPa Calm     91 % 0 mm 12.0 W/m2 BKN
08:02 -12.6 °C -13.3 °C 34611.7 hPa Calm     91 % 0 mm 14.0 W/m2 BKN
08:07 -12.6 °C -13.3 °C 34611.7 hPa Calm     91 % 0 mm 19.0 W/m2 BKN
08:12 -12.6 °C -13.3 °C 34611.7 hPa Calm     91 % 0 mm 25.0 W/m2 BKN
08:17 -12.6 °C -13.3 °C 34611.7 hPa Calm     91 % 0 mm 30.0 W/m2 BKN
08:22 -12.6 °C -13.3 °C 34625.2 hPa Calm     91 % 0 mm 33.0 W/m2 BKN
08:27 -12.6 °C -13.3 °C 34625.2 hPa Calm     91 % 0 mm 44.0 W/m2 BKN
08:32 -12.6 °C -13.3 °C 34625.2 hPa Calm     91 % 0 mm 60.0 W/m2 SCT
08:37 -12.2 °C -13.1 °C 34625.2 hPa Calm     90 % 0 mm 74.0 W/m2 FEW
08:42 -12.2 °C -13 °C 34625.2 hPa Calm     91 % 0 mm 81.0 W/m2 FEW
08:47 -11.9 °C -12.7 °C 34625.2 hPa Calm     91 % 0 mm 70.0 W/m2 FEW
08:52 -11.9 °C -12.7 °C 34625.2 hPa Calm     91 % 0 mm 72.0 W/m2 FEW
08:57 -11.6 °C -12.4 °C 34611.7 hPa Calm     91 % 0 mm 81.0 W/m2 FEW
09:02 -11.6 °C -12.4 °C 34625.2 hPa Calm     91 % 0 mm 97.0 W/m2 FEW
09:07 -11.6 °C -12.4 °C 34625.2 hPa Calm     91 % 0 mm 100.0 W/m2 CLR
09:12 -11.3 °C -12.2 °C 34625.2 hPa Calm     90 % 0 mm 107.0 W/m2 CLR
09:17 -11.3 °C -12.2 °C 34611.7 hPa Calm     90 % 0 mm 113.0 W/m2 CLR
09:22 -11 °C -11.9 °C 34611.7 hPa Calm     90 % 0 mm 118.0 W/m2 CLR
09:27 -11 °C -12 °C 34611.7 hPa Calm     89 % 0 mm 118.0 W/m2 CLR
09:32 -11 °C -12 °C 34611.7 hPa Calm     89 % 0 mm 111.0 W/m2 CLR
09:37 -10.7 °C -11.8 °C 34611.7 hPa Calm     88 % 0 mm 135.0 W/m2 CLR
09:42 -10.7 °C -11.8 °C 34611.7 hPa Calm     88 % 0 mm 130.0 W/m2 CLR
09:47 -10.7 °C -11.8 °C 34611.7 hPa Calm     88 % 0 mm 141.0 W/m2 CLR
09:52 -10.4 °C -11.4 °C 34611.7 hPa Calm     88 % 0 mm 141.0 W/m2 CLR
09:57 -10.4 °C -11.6 °C 34611.7 hPa Calm     87 % 0 mm 151.0 W/m2 CLR
10:02 -10.1 °C -11.2 °C 34611.7 hPa Calm     87 % 0 mm 132.0 W/m2 CLR
10:07 -10.1 °C -11.2 °C 34611.7 hPa Calm     88 % 0 mm 118.0 W/m2 CLR
10:12 -10.1 °C -11.2 °C 34611.7 hPa Calm     87 % 0 mm 132.0 W/m2 CLR
10:17 -9.8 °C -10.9 °C 34611.7 hPa Calm     87 % 0 mm 162.0 W/m2 CLR
10:22 -9.8 °C -10.9 °C 34611.7 hPa Calm     87 % 0 mm 158.0 W/m2 CLR
10:27 -9.4 °C -10.7 °C 34601.5 hPa Calm     86 % 0 mm 169.0 W/m2 CLR
10:32 -9.4 °C -10.7 °C 34611.7 hPa Calm     86 % 0 mm 137.0 W/m2 CLR
10:37 -9.4 °C -10.8 °C 34611.7 hPa Calm     85 % 0 mm 171.0 W/m2 CLR
10:42 -9.4 °C -10.8 °C 34611.7 hPa Calm     85 % 0 mm 237.0 W/m2 CLR
10:47 -9.1 °C -10.6 °C 34611.7 hPa Calm     84 % 0 mm 466.0 W/m2 CLR
10:52 -8.8 °C -10.3 °C 34611.7 hPa Calm     84 % 0 mm 531.0 W/m2 CLR
10:57 -8.8 °C -10.7 °C 34601.5 hPa Calm     81 % 0 mm 162.0 W/m2 CLR
11:02 -8.5 °C -10.4 °C 34611.7 hPa Calm     80 % 0 mm 160.0 W/m2 CLR
11:07 -8.5 °C -10.4 °C 34601.5 hPa Calm     80 % 0 mm 427.0 W/m2 CLR
11:12 -8.2 °C -10.2 °C 34601.5 hPa Calm     79 % 0 mm 547.0 W/m2 CLR
11:17 -7.9 °C -10.2 °C 34601.5 hPa Calm     77 % 0 mm 443.0 W/m2 CLR
11:22 -7.6 °C -10 °C 34601.5 hPa Calm     76 % 0 mm 436.0 W/m2 CLR
11:27 -7.3 °C -9.8 °C 34601.5 hPa Calm     75 % 0 mm 548.0 W/m2 CLR
11:32 -7.3 °C -10.1 °C 34601.5 hPa Calm     73 % 0 mm 397.0 W/m2 CLR
11:37 -7 °C -9.6 °C 34601.5 hPa Calm     74 % 0 mm 436.0 W/m2 CLR
11:42 -7 °C -10.2 °C 34601.5 hPa West 18.2 km/h 18.2 km/h 69 % 0 mm 508.0 W/m2 CLR
11:47 -6.7 °C -10.1 °C 34601.5 hPa West 20.9 km/h 20.9 km/h 68 % 0 mm 432.0 W/m2 CLR
11:52 -6.3 °C -9.8 °C 34601.5 hPa WSW 18.2 km/h 18.2 km/h 68 % 0 mm 311.0 W/m2 CLR
11:57 -6.3 °C -9.6 °C 34601.5 hPa WSW 26.9 km/h 26.9 km/h 69 % 0 mm 601.0 W/m2 CLR
12:02 -6.1 °C -9.2 °C 34601.5 hPa SSW 15 km/h 15 km/h 70 % 0 mm 448.0 W/m2 CLR
12:07 -6.1 °C -9.2 °C 34601.5 hPa West 29.8 km/h 29.8 km/h 70 % 0 mm 504.0 W/m2 CLR
12:12 -6.1 °C -8.8 °C 34601.5 hPa SW 23.8 km/h 23.8 km/h 73 % 0 mm 566.0 W/m2 CLR
12:17 -6.1 °C -8.8 °C 34601.5 hPa West 26.9 km/h 26.9 km/h 73 % 0 mm 536.0 W/m2 CLR
12:22 -6.1 °C -8.7 °C 34601.5 hPa WSW 29.8 km/h 29.8 km/h 74 % 0 mm 499.0 W/m2 CLR
12:27 -6.3 °C -8.8 °C 34601.5 hPa West 29.8 km/h 29.8 km/h 76 % 0 mm 443.0 W/m2 CLR
12:32 -6.7 °C -9 °C 34611.7 hPa West 29.8 km/h 29.8 km/h 77 % 0 mm 373.0 W/m2 CLR
12:37 -6.7 °C -9 °C 34601.5 hPa West 29.8 km/h 29.8 km/h 77 % 0 mm 404.0 W/m2 CLR
12:42 -6.7 °C -8.8 °C 34601.5 hPa West 23.3 km/h 23.3 km/h 78 % 0 mm 369.0 W/m2 CLR
12:47 -7 °C -9.2 °C 34611.7 hPa West 26.9 km/h 26.9 km/h 78 % 0 mm 397.0 W/m2 CLR
12:52 -6.7 °C -8.8 °C 34611.7 hPa WSW 26.9 km/h 26.9 km/h 78 % 0 mm 345.0 W/m2 CLR
12:57 -7 °C -9.2 °C 34611.7 hPa WNW 20.9 km/h 20.9 km/h 78 % 0 mm 279.0 W/m2 CLR
13:02 -7 °C -9.2 °C 34611.7 hPa WSW 23.8 km/h 23.8 km/h 78 % 0 mm 253.0 W/m2 CLR
13:07 -7 °C -8.9 °C 34611.7 hPa WSW 26.9 km/h 26.9 km/h 80 % 0 mm 234.0 W/m2 CLR
13:12 -7 °C -8.9 °C 34611.7 hPa WSW 26.9 km/h 26.9 km/h 80 % 0 mm 220.0 W/m2 CLR
13:17 -7.3 °C -9.1 °C 34611.7 hPa West 23.8 km/h 23.8 km/h 81 % 0 mm 243.0 W/m2 CLR
13:22 -7.3 °C -9.1 °C 34611.7 hPa West 23.3 km/h 23.3 km/h 82 % 0 mm 237.0 W/m2 CLR
13:27 -7.3 °C -9.1 °C 34625.2 hPa WSW 20.9 km/h 20.9 km/h 82 % 0 mm 230.0 W/m2 CLR
13:32 -7.3 °C -9.1 °C 34625.2 hPa SW 12.9 km/h 12.9 km/h 82 % 0 mm 204.0 W/m2 CLR
13:37 -7.3 °C -9.1 °C 34625.2 hPa WSW 17.9 km/h 17.9 km/h 82 % 0 mm 178.0 W/m2 CLR
13:42 -7.3 °C -9.1 °C 34625.2 hPa West 23.8 km/h 23.8 km/h 82 % 0 mm 200.0 W/m2 CLR
13:47 -7.3 °C -8.9 °C 34625.2 hPa West 15 km/h 15 km/h 83 % 0 mm 213.0 W/m2 CLR
13:52 -7.3 °C -8.9 °C 34625.2 hPa WSW 17.9 km/h 17.9 km/h 83 % 0 mm 195.0 W/m2 CLR
13:57 -7.3 °C -9.1 °C 34625.2 hPa West 17.9 km/h 17.9 km/h 82 % 0 mm 213.0 W/m2 CLR
14:02 -7.3 °C -9.1 °C 34625.2 hPa SW 3.1 km/h   82 % 0 mm 216.0 W/m2 CLR
14:07 -7.3 °C -9.1 °C 34611.7 hPa Calm     82 % 0 mm 251.0 W/m2 CLR
14:12 -7 °C -8.8 °C 34625.2 hPa West 26.9 km/h 26.9 km/h 81 % 0 mm 248.0 W/m2 CLR
14:17 -7 °C -8.8 °C 34611.7 hPa West 9 km/h   81 % 0 mm 236.0 W/m2 CLR
14:22 -7 °C -8.9 °C 34611.7 hPa Calm     80 % 0 mm 188.0 W/m2 CLR
14:27 -7 °C -8.8 °C 34611.7 hPa Calm     81 % 0 mm 183.0 W/m2 CLR
14:32 -7 °C -8.8 °C 34601.5 hPa Calm     81 % 0 mm 218.0 W/m2 CLR
14:37 -7 °C -8.9 °C 34601.5 hPa Calm     80 % 0 mm 227.0 W/m2 CLR
14:42 -7 °C -9.1 °C 34601.5 hPa Calm     79 % 0 mm 183.0 W/m2 CLR
14:47 -7 °C -9.2 °C 34601.5 hPa Calm     78 % 0 mm 211.0 W/m2 CLR
14:52 -7 °C -9.2 °C 34601.5 hPa Calm     78 % 0 mm 265.0 W/m2 CLR
14:57 -7 °C -9.2 °C 34601.5 hPa Calm     78 % 0 mm 253.0 W/m2 CLR
15:02 -7 °C -9.2 °C 34601.5 hPa Calm     78 % 0 mm 241.0 W/m2 CLR
15:07 -7 °C -9.3 °C 34601.5 hPa Calm     77 % 0 mm 237.0 W/m2 CLR
15:12 -6.7 °C -9 °C 34591.4 hPa Calm     77 % 0 mm 257.0 W/m2 CLR
15:13 -6.7 °C -9 °C 34591.4 hPa Calm     77 % 0 mm 257.0 W/m2 CLR
15:18 -6.7 °C -9 °C 34591.4 hPa Calm     77 % 0 mm 241.0 W/m2 CLR
15:23 -6.7 °C -9 °C 34577.8 hPa Calm     77 % 0 mm 253.0 W/m2 CLR
15:28 -6.7 °C -9 °C 34577.8 hPa Calm     77 % 0 mm 287.0 W/m2 CLR
15:29 -6.7 °C -9 °C 34577.8 hPa Calm     77 % 0 mm 285.0 W/m2 CLR
15:34 -6.7 °C -9.1 °C 34567.7 hPa Calm     76 % 0 mm 246.0 W/m2 CLR
15:39 -6.7 °C -9.1 °C 34567.7 hPa Calm     76 % 0 mm 206.0 W/m2 CLR
15:44 -6.7 °C -9 °C 34567.7 hPa Calm     77 % 0 mm 211.0 W/m2 CLR
15:49 -6.7 °C -9.1 °C 34567.7 hPa Calm     76 % 0 mm 167.0 W/m2 CLR
15:54 -6.7 °C -9.1 °C 34577.8 hPa Calm     76 % 0 mm 120.0 W/m2 CLR
15:59 -6.7 °C -9.1 °C 34577.8 hPa Calm     76 % 0 mm 121.0 W/m2 CLR
16:04 -6.7 °C -9.1 °C 34577.8 hPa Calm     76 % 0 mm 130.0 W/m2 CLR
16:09 -6.7 °C -9.1 °C 34567.7 hPa Calm     76 % 0 mm 109.0 W/m2 CLR
16:14 -6.7 °C -9.2 °C 34577.8 hPa Calm     75 % 0 mm 100.0 W/m2 CLR
16:19 -6.7 °C -9.1 °C 34567.7 hPa Calm     76 % 0 mm 97.0 W/m2 CLR
16:24 -6.7 °C -9.2 °C 34577.8 hPa Calm     75 % 0 mm 81.0 W/m2 CLR
16:29 -6.7 °C -9.1 °C 34577.8 hPa Calm     76 % 0 mm 84.0 W/m2 CLR
16:34 -6.7 °C -9.1 °C 34567.7 hPa Calm     76 % 0 mm 86.0 W/m2 FEW
16:39 -7 °C -9.3 °C 34567.7 hPa Calm     77 % 0 mm 105.0 W/m2 CLR
16:44 -7 °C -9.2 °C 34554.1 hPa Calm     78 % 0 mm 134.0 W/m2 CLR
16:49 -7 °C -9.1 °C 34554.1 hPa Calm     79 % 0 mm 156.0 W/m2 CLR
16:54 -7 °C -9.1 °C 34554.1 hPa Calm     79 % 0 mm 134.0 W/m2 CLR
16:59 -7 °C -8.9 °C 34554.1 hPa Calm     80 % 0 mm 111.0 W/m2 CLR
17:04 -7 °C -9.1 °C 34554.1 hPa Calm     79 % 0 mm 97.0 W/m2 CLR
17:09 -7 °C -9.1 °C 34554.1 hPa Calm     79 % 0 mm 95.0 W/m2 CLR
17:14 -7 °C -8.9 °C 34554.1 hPa Calm     80 % 0 mm 100.0 W/m2 CLR
17:19 -7 °C -9.1 °C 34567.7 hPa Calm     79 % 0 mm 104.0 W/m2 CLR
17:24 -7 °C -9.2 °C 34554.1 hPa Calm     78 % 0 mm 114.0 W/m2 CLR
17:29 -6.7 °C -8.8 °C 34567.7 hPa Calm     78 % 0 mm 114.0 W/m2 CLR
17:34 -6.7 °C -8.8 °C 34567.7 hPa Calm     78 % 0 mm 113.0 W/m2 CLR
17:39 -6.7 °C -8.8 °C 34567.7 hPa Calm     78 % 0 mm 123.0 W/m2 CLR
17:44 -6.7 °C -8.8 °C 34567.7 hPa Calm     78 % 0 mm 109.0 W/m2 CLR
17:50 -6.7 °C -9 °C 34567.7 hPa Calm     77 % 0 mm 81.0 W/m2 CLR
17:55 -7 °C -9.3 °C 34567.7 hPa Calm     77 % 0 mm 72.0 W/m2 CLR
18:00 -7 °C -9.2 °C 34577.8 hPa Calm     78 % 0 mm 67.0 W/m2 FEW
18:05 -7 °C -9.2 °C 34577.8 hPa NW 10.3 km/h 10.3 km/h 78 % 0 mm 67.0 W/m2 FEW
18:10 -7 °C -9.3 °C 34577.8 hPa Calm     77 % 0 mm 65.0 W/m2 FEW
18:15 -7 °C -9.4 °C 34577.8 hPa WNW 10.3 km/h 10.3 km/h 76 % 0 mm 58.0 W/m2 SCT
18:20 -7 °C -9.4 °C 34577.8 hPa WNW 9 km/h 9 km/h 76 % 0 mm 63.0 W/m2 SCT
18:25 -7 °C -9.4 °C 34577.8 hPa WNW 9 km/h 9 km/h 76 % 0 mm 77.0 W/m2 FEW
18:30 -7 °C -9.3 °C 34577.8 hPa WNW 9 km/h 9 km/h 77 % 0 mm 83.0 W/m2 FEW
18:35 -7 °C -9.2 °C 34577.8 hPa Calm     78 % 0 mm 70.0 W/m2 FEW
18:40 -7 °C -9.2 °C 34591.4 hPa Calm     78 % 0 mm 46.0 W/m2 FEW
18:45 -7 °C -9.1 °C 34591.4 hPa Calm     79 % 0 mm 37.0 W/m2 BKN
18:50 -7 °C -9.1 °C 34577.8 hPa Calm     79 % 0 mm 33.0 W/m2 BKN
18:55 -7 °C -9.1 °C 34577.8 hPa Calm     79 % 0 mm 26.0 W/m2 BKN
19:00 -7.3 °C -9.3 °C 34591.4 hPa Calm     79 % 0 mm 23.0 W/m2 BKN
19:05 -7.3 °C -9.2 °C 34577.8 hPa Calm     80 % 0 mm 23.0 W/m2 BKN
19:10 -7.3 °C -9.2 °C 34577.8 hPa Calm     80 % 0 mm 28.0 W/m2 BKN
19:15 -7.3 °C -9.2 °C 34577.8 hPa Calm     80 % 0 mm 32.0 W/m2 BKN
19:20 -7.6 °C -9.6 °C 34577.8 hPa Calm     80 % 0 mm 21.0 W/m2 BKN
19:25 -7.6 °C -9.6 °C 34577.8 hPa Calm     80 % 0 mm 19.0 W/m2 BKN
19:30 -7.6 °C -9.6 °C 34577.8 hPa Calm     80 % 0 mm 18.0 W/m2 BKN
19:35 -7.6 °C -9.6 °C 34577.8 hPa Calm     80 % 0 mm 9.0 W/m2 BKN
19:40 -7.6 °C -9.6 °C 34577.8 hPa Calm     80 % 0 mm 0.0 W/m2 OVC
19:45 -7.9 °C -9.8 °C 34577.8 hPa Calm     80 % 0 mm 0.0 W/m2 OVC
19:46 -7.9 °C -9.8 °C 34591.4 hPa Calm     80 % 0 mm 0.0 W/m2 OVC
19:51 -7.9 °C -9.8 °C 34591.4 hPa Calm     80 % 0 mm 0.0 W/m2 OVC
19:56 -7.9 °C -9.7 °C 34591.4 hPa Calm     81 % 0 mm 0.0 W/m2 CLR
20:01 -8.2 °C -10.1 °C 34591.4 hPa Calm     81 % 0 mm 0.0 W/m2 CLR
20:06 -8.2 °C -10.1 °C 34591.4 hPa Calm     81 % 0 mm 0.0 W/m2 CLR
20:11 -8.2 °C -10.1 °C 34591.4 hPa Calm     81 % 0 mm 0.0 W/m2 CLR
20:16 -8.2 °C -9.9 °C 34591.4 hPa Calm     82 % 0 mm 0.0 W/m2 CLR
20:21 -8.5 °C -10.2 °C 34591.4 hPa Calm     82 % 0 mm 0.0 W/m2 CLR
20:26 -8.5 °C -10.2 °C 34591.4 hPa Calm     82 % 0 mm 0.0 W/m2 CLR
20:31 -8.5 °C -10.2 °C 34577.8 hPa Calm     82 % 0 mm 0.0 W/m2 CLR
20:36 -8.5 °C -10.2 °C 34591.4 hPa Calm     82 % 0 mm 0.0 W/m2 CLR
20:41 -8.5 °C -10.2 °C 34591.4 hPa Calm     82 % 0 mm 0.0 W/m2 CLR
20:46 -8.5 °C -10.1 °C 34591.4 hPa Calm     83 % 0 mm 0.0 W/m2 CLR
20:51 -8.8 °C -10.4 °C 34591.4 hPa Calm     83 % 0 mm 0.0 W/m2 CLR
20:56 -8.8 °C -10.3 °C 34601.5 hPa Calm     84 % 0 mm 0.0 W/m2 CLR
21:01 -8.8 °C -10.3 °C 34601.5 hPa Calm     84 % 0 mm 0.0 W/m2 CLR
21:06 -8.8 °C -10.3 °C 34601.5 hPa Calm     84 % 0 mm 0.0 W/m2 CLR
21:11 -8.8 °C -10.3 °C 34611.7 hPa Calm     84 % 0 mm 0.0 W/m2 CLR
21:16 -8.8 °C -10.3 °C 34611.7 hPa Calm     84 % 0 mm 0.0 W/m2 CLR
21:21 -8.8 °C -10.3 °C 34611.7 hPa Calm     84 % 0 mm 0.0 W/m2 CLR
21:26 -8.8 °C -10.2 °C 34611.7 hPa Calm     85 % 0 mm 0.0 W/m2 CLR
21:31 -8.8 °C -10.2 °C 34611.7 hPa Calm     85 % 0 mm 0.0 W/m2 CLR
21:36 -8.8 °C -10.2 °C 34625.2 hPa Calm     85 % 0 mm 0.0 W/m2 CLR
21:41 -8.8 °C -10.2 °C 34611.7 hPa Calm     85 % 0 mm 0.0 W/m2 CLR
21:46 -8.8 °C -10.2 °C 34611.7 hPa Calm     85 % 0 mm 0.0 W/m2 CLR
21:51 -8.8 °C -10.1 °C 34611.7 hPa Calm     86 % 0 mm 0.0 W/m2 CLR
21:56 -8.8 °C -10.1 °C 34611.7 hPa Calm     86 % 0 mm 0.0 W/m2 CLR
22:01 -8.8 °C -10.1 °C 34611.7 hPa Calm     86 % 0 mm 0.0 W/m2 CLR
22:06 -8.8 °C -10.1 °C 34611.7 hPa Calm     86 % 0 mm 0.0 W/m2 CLR
22:11 -8.8 °C -10.1 °C 34625.2 hPa Calm     86 % 0 mm 0.0 W/m2 CLR
22:16 -8.8 °C -10.1 °C 34625.2 hPa Calm     86 % 0 mm 0.0 W/m2 CLR
22:21 -8.8 °C -10.1 °C 34635.4 hPa Calm     86 % 0 mm 0.0 W/m2 CLR
22:26 -8.8 °C -10.1 °C 34625.2 hPa Calm     86 % 0 mm 0.0 W/m2 CLR
22:31 -8.8 °C -10.1 °C 34625.2 hPa Calm     86 % 0 mm 0.0 W/m2 CLR
22:36 -9.1 °C -10.4 °C 34635.4 hPa Calm     86 % 0 mm 0.0 W/m2 CLR
22:41 -9.1 °C -10.4 °C 34635.4 hPa Calm     86 % 0 mm 0.0 W/m2 CLR
22:46 -9.1 °C -10.4 °C 34645.6 hPa Calm     86 % 0 mm 0.0 W/m2 CLR
22:51 -9.1 °C -10.3 °C 34645.6 hPa Calm     87 % 0 mm 0.0 W/m2 CLR
22:56 -9.1 °C -10.4 °C 34635.4 hPa Calm     86 % 0 mm 0.0 W/m2 CLR
23:01 -9.1 °C -10.4 °C 34635.4 hPa Calm     86 % 0 mm 0.0 W/m2 CLR
23:06 -9.1 °C -10.3 °C 34645.6 hPa Calm     87 % 0 mm 0.0 W/m2 CLR
23:11 -8.8 °C -10.1 °C 34645.6 hPa Calm     87 % 0 mm 0.0 W/m2 CLR
23:16 -8.8 °C -10.1 °C 34645.6 hPa Calm     87 % 0 mm 0.0 W/m2 CLR
23:21 -8.8 °C -10.1 °C 34645.6 hPa Calm     87 % 0 mm 0.0 W/m2 CLR
23:26 -8.8 °C -10.1 °C 34645.6 hPa Calm     87 % 0 mm 0.0 W/m2 CLR
23:31 -8.8 °C -10.1 °C 34645.6 hPa Calm     86 % 0 mm 0.0 W/m2 CLR
23:36 -8.8 °C -10.1 °C 34645.6 hPa Calm     86 % 0 mm 0.0 W/m2 CLR
23:41 -8.8 °C -10.1 °C 34645.6 hPa Calm     87 % 0 mm 0.0 W/m2 CLR
23:46 -8.8 °C -10.1 °C 34645.6 hPa Calm     87 % 0 mm 0.0 W/m2 CLR
23:51 -8.8 °C -10.1 °C 34659.1 hPa Calm     87 % 0 mm 0.0 W/m2 CLR
23:56 -8.8 °C -10.1 °C 34659.1 hPa Calm     87 % 0 mm 0.0 W/m2 CLR
Lo Temps de Massalio
Compliments of Weather Underground - 1.25 mb